createdAt,value
2023-03-14T00:00:27.785Z,13.31
2023-03-14T00:03:14.875Z,13.54
2023-03-14T00:06:40.941Z,13.59
2023-03-14T00:09:19.792Z,13.34
2023-03-14T00:12:03.038Z,13.30
2023-03-14T00:14:33.175Z,13.39
2023-03-14T00:17:03.551Z,13.30
2023-03-14T00:19:37.815Z,13.21
2023-03-14T00:22:07.611Z,13.14
2023-03-14T00:24:34.539Z,11.75
2023-03-14T00:27:03.066Z,12.37
2023-03-14T00:29:32.565Z,13.11
2023-03-14T00:32:02.297Z,13.13
2023-03-14T00:34:39.162Z,13.19
2023-03-14T00:37:05.806Z,12.82
2023-03-14T00:39:38.727Z,13.17
2023-03-14T00:42:05.455Z,13.43
2023-03-14T00:44:37.927Z,13.34
2023-03-14T00:47:08.119Z,13.24
2023-03-14T00:49:38.037Z,13.23
2023-03-14T00:52:18.384Z,13.76
2023-03-14T00:54:45.506Z,13.85
2023-03-14T00:57:21.341Z,13.88
2023-03-14T00:59:48.323Z,13.96
2023-03-14T01:02:18.482Z,14.32
2023-03-14T01:04:47.733Z,14.39
2023-03-14T01:07:36.581Z,14.60
2023-03-14T01:10:10.916Z,14.60
2023-03-14T01:12:50.216Z,14.64
2023-03-14T01:15:25.274Z,14.63
2023-03-14T01:17:58.129Z,14.71
2023-03-14T01:20:24.966Z,14.71
2023-03-14T01:22:51.933Z,14.59
2023-03-14T01:25:19.400Z,14.78
2023-03-14T01:27:46.438Z,14.92
2023-03-14T01:30:19.226Z,14.33
2023-03-14T01:32:49.184Z,14.58
2023-03-14T01:35:22.965Z,14.81
2023-03-14T01:37:49.708Z,14.67
2023-03-14T01:40:19.495Z,14.76
2023-03-14T01:43:01.484Z,14.68
2023-03-14T01:45:52.648Z,15.05
2023-03-14T01:48:19.864Z,14.65
2023-03-14T01:50:46.855Z,14.62
2023-03-14T01:53:16.575Z,14.79
2023-03-14T01:55:43.480Z,14.59
2023-03-14T01:58:29.816Z,14.91
2023-03-14T02:01:08.333Z,14.96
2023-03-14T02:03:47.762Z,15.18
2023-03-14T02:06:19.000Z,15.14
2023-03-14T02:08:50.713Z,15.00
2023-03-14T02:11:19.498Z,14.96
2023-03-14T02:13:57.753Z,14.69
2023-03-14T02:16:24.915Z,14.80
2023-03-14T02:18:51.770Z,14.50
2023-03-14T02:21:23.246Z,14.64
2023-03-14T02:24:08.838Z,14.59
2023-03-14T02:26:53.507Z,14.55
2023-03-14T02:29:23.167Z,14.73
2023-03-14T02:31:52.278Z,14.67
2023-03-14T02:34:19.974Z,14.62
2023-03-14T02:36:47.647Z,14.57
2023-03-14T02:39:31.013Z,14.63
2023-03-14T02:41:57.700Z,14.39
2023-03-14T02:44:24.400Z,14.85
2023-03-14T02:47:03.911Z,14.46
2023-03-14T02:49:37.760Z,14.88
2023-03-14T02:52:17.609Z,15.09
2023-03-14T02:54:44.843Z,14.83
2023-03-14T02:57:12.656Z,14.86
2023-03-14T02:59:39.331Z,14.90
2023-03-14T03:02:06.160Z,14.86
2023-03-14T03:04:37.596Z,14.60
2023-03-14T03:07:10.006Z,14.11
2023-03-14T03:09:36.834Z,14.78
2023-03-14T03:12:16.569Z,14.73
2023-03-14T03:14:44.433Z,14.56
2023-03-14T03:17:15.629Z,14.51
2023-03-14T03:19:44.751Z,14.30
2023-03-14T03:22:11.491Z,14.30
2023-03-14T03:24:41.588Z,13.18
2023-03-14T03:27:10.913Z,13.77
2023-03-14T03:29:39.019Z,14.70
2023-03-14T03:32:05.837Z,14.36
2023-03-14T03:34:32.526Z,14.46
2023-03-14T03:37:05.480Z,14.52
2023-03-14T03:40:03.650Z,14.31
2023-03-14T03:42:32.442Z,14.46
2023-03-14T03:45:00.408Z,13.90
2023-03-14T03:47:31.892Z,13.15
2023-03-14T03:50:01.659Z,13.83
2023-03-14T03:52:28.586Z,14.42
2023-03-14T03:54:55.432Z,14.69
2023-03-14T03:57:31.366Z,14.70
2023-03-14T04:00:06.824Z,14.39
2023-03-14T04:02:34.009Z,14.49
2023-03-14T04:05:04.440Z,14.65
2023-03-14T04:07:33.439Z,14.00
2023-03-14T04:10:00.163Z,14.41
2023-03-14T04:12:40.821Z,14.38
2023-03-14T04:15:18.828Z,14.42
2023-03-14T04:17:45.571Z,14.34
2023-03-14T04:20:15.452Z,14.04
2023-03-14T04:22:45.097Z,14.02
2023-03-14T04:25:11.813Z,13.72
2023-03-14T04:27:42.006Z,13.37
2023-03-14T04:30:09.571Z,12.64
2023-03-14T04:32:36.370Z,13.82
2023-03-14T04:35:03.151Z,13.97
2023-03-14T04:37:29.965Z,14.23
2023-03-14T04:40:07.273Z,14.83
2023-03-14T04:42:38.848Z,14.70
2023-03-14T04:45:06.252Z,14.93
2023-03-14T04:47:34.338Z,14.19
2023-03-14T04:50:01.026Z,14.65
2023-03-14T04:52:35.972Z,14.87
2023-03-14T04:55:03.109Z,14.71
2023-03-14T04:57:33.196Z,14.91
2023-03-14T04:59:59.965Z,15.08
2023-03-14T05:02:33.120Z,14.99
2023-03-14T05:04:59.842Z,14.84
2023-03-14T05:07:29.596Z,14.48
2023-03-14T05:09:56.491Z,14.95
2023-03-14T05:12:28.306Z,14.74
2023-03-14T05:15:01.770Z,14.92
2023-03-14T05:17:34.551Z,14.91
2023-03-14T05:20:21.527Z,14.92
2023-03-14T05:22:48.894Z,15.11
2023-03-14T05:25:15.704Z,14.10
2023-03-14T05:27:52.385Z,14.95
2023-03-14T05:30:19.778Z,14.70
2023-03-14T05:32:46.552Z,14.67
2023-03-14T05:35:16.502Z,14.59
2023-03-14T05:37:43.270Z,14.38
2023-03-14T05:40:14.405Z,14.60
2023-03-14T05:42:41.171Z,14.40
2023-03-14T05:45:08.542Z,14.30
2023-03-14T05:47:35.361Z,14.65
2023-03-14T05:50:05.252Z,14.89
2023-03-14T05:52:38.572Z,14.80
2023-03-14T05:55:20.855Z,15.25
2023-03-14T06:00:37.369Z,14.76
2023-03-14T06:03:12.350Z,14.71
2023-03-14T06:05:39.677Z,14.37
2023-03-14T06:08:06.341Z,14.20
2023-03-14T06:10:41.674Z,14.78
2023-03-14T06:13:18.754Z,14.61
2023-03-14T06:15:49.784Z,14.61
2023-03-14T06:18:21.080Z,14.96
2023-03-14T06:20:56.488Z,14.99
2023-03-14T06:23:24.236Z,15.00
2023-03-14T06:26:00.334Z,14.56
2023-03-14T06:28:35.255Z,14.39
2023-03-14T06:31:04.047Z,14.63
2023-03-14T06:33:33.316Z,14.76
2023-03-14T06:36:01.638Z,14.60
2023-03-14T06:38:28.527Z,14.69
2023-03-14T06:41:17.876Z,14.97
2023-03-14T06:43:42.691Z,14.83
2023-03-14T06:46:09.643Z,14.89
2023-03-14T06:48:38.641Z,15.34
2023-03-14T06:51:11.479Z,14.96
2023-03-14T06:53:52.547Z,15.09
2023-03-14T06:56:22.074Z,15.16
2023-03-14T06:58:50.361Z,15.17
2023-03-14T07:01:29.034Z,15.56
2023-03-14T07:03:56.975Z,15.30
2023-03-14T07:06:24.046Z,15.30
2023-03-14T07:08:51.004Z,15.59
2023-03-14T07:11:17.903Z,15.49
2023-03-14T07:13:55.998Z,15.26
2023-03-14T07:16:22.849Z,15.51
2023-03-14T07:18:50.441Z,15.62
2023-03-14T07:21:17.134Z,15.50
2023-03-14T07:23:46.991Z,15.49
2023-03-14T07:26:13.690Z,15.58
2023-03-14T07:28:40.418Z,15.53
2023-03-14T07:31:13.494Z,15.53
2023-03-14T07:33:41.422Z,15.38
2023-03-14T07:36:08.887Z,15.45
2023-03-14T07:38:38.854Z,15.60
2023-03-14T07:41:09.322Z,15.70
2023-03-14T07:43:48.396Z,15.40
2023-03-14T07:46:19.006Z,15.21
2023-03-14T07:49:08.977Z,15.39
2023-03-14T07:51:40.358Z,15.32
2023-03-14T07:54:07.117Z,15.49
2023-03-14T07:56:43.663Z,15.42
2023-03-14T07:59:10.348Z,15.44
2023-03-14T08:01:37.183Z,15.75
2023-03-14T08:06:44.500Z,15.82
2023-03-14T08:09:16.625Z,15.84
2023-03-14T08:11:44.501Z,16.07
2023-03-14T08:14:12.198Z,15.78
2023-03-14T08:16:49.961Z,16.10
2023-03-14T08:19:17.617Z,16.06
2023-03-14T08:21:53.913Z,16.20
2023-03-14T08:24:21.619Z,15.51
2023-03-14T08:26:54.003Z,15.90
2023-03-14T08:29:21.026Z,16.21
2023-03-14T08:32:03.954Z,16.08
2023-03-14T08:34:31.237Z,14.49
2023-03-14T08:36:57.916Z,15.77
2023-03-14T08:39:41.487Z,15.90
2023-03-14T08:42:17.804Z,16.00
2023-03-14T08:44:45.074Z,15.89
2023-03-14T08:47:20.913Z,15.61
2023-03-14T08:49:54.827Z,15.78
2023-03-14T08:52:34.343Z,15.83
2023-03-14T08:55:02.232Z,15.90
2023-03-14T08:57:29.164Z,15.79
2023-03-14T09:00:01.745Z,15.75
2023-03-14T09:02:31.666Z,15.87
2023-03-14T09:04:59.011Z,15.77
2023-03-14T09:07:38.854Z,16.01
2023-03-14T09:10:20.711Z,16.19
2023-03-14T09:12:58.171Z,16.28
2023-03-14T09:15:36.922Z,16.19
2023-03-14T09:18:26.866Z,16.32
2023-03-14T09:20:55.576Z,16.32
2023-03-14T09:23:32.860Z,16.08
2023-03-14T09:26:11.820Z,16.59
2023-03-14T09:29:12.052Z,16.28
2023-03-14T09:32:10.691Z,16.07
2023-03-14T09:34:40.329Z,16.44
2023-03-14T09:37:16.547Z,16.23
2023-03-14T09:40:01.227Z,16.41
2023-03-14T09:42:45.448Z,16.27
2023-03-14T09:46:06.592Z,16.17
2023-03-14T09:48:48.213Z,16.47
2023-03-14T09:51:31.012Z,16.83
2023-03-14T09:54:03.597Z,16.96
2023-03-14T09:56:42.145Z,16.95
2023-03-14T09:59:14.659Z,17.04
2023-03-14T10:01:41.911Z,17.34
2023-03-14T10:04:15.730Z,17.35
2023-03-14T10:06:49.588Z,17.42
2023-03-14T10:09:28.789Z,17.32
2023-03-14T10:12:09.040Z,16.52
2023-03-14T10:14:45.395Z,17.47
2023-03-14T10:17:40.616Z,17.90
2023-03-14T10:20:33.631Z,17.97
2023-03-14T10:23:29.697Z,17.60
2023-03-14T10:26:06.935Z,17.51
2023-03-14T10:28:43.558Z,17.52
2023-03-14T10:31:16.560Z,17.38
2023-03-14T10:33:59.541Z,17.47
2023-03-14T10:36:30.510Z,17.09
2023-03-14T10:39:45.536Z,17.32
2023-03-14T10:42:48.083Z,17.44
2023-03-14T10:45:38.449Z,17.40
2023-03-14T10:48:28.513Z,17.56
2023-03-14T10:51:38.384Z,17.58
2023-03-14T10:54:32.368Z,17.45
2023-03-14T10:57:05.356Z,17.71
2023-03-14T10:59:59.842Z,17.62
2023-03-14T11:03:00.191Z,17.84
2023-03-14T11:05:49.275Z,17.49
2023-03-14T11:08:29.123Z,17.85
2023-03-14T11:11:26.081Z,18.13
2023-03-14T11:14:19.421Z,18.29
2023-03-14T11:17:31.434Z,18.54
2023-03-14T11:20:06.704Z,18.63
2023-03-14T11:22:44.848Z,18.27
2023-03-14T11:25:41.817Z,18.54
2023-03-14T11:28:30.064Z,18.13
2023-03-14T11:31:41.766Z,18.28
2023-03-14T11:34:32.826Z,18.00
2023-03-14T11:37:24.534Z,18.04
2023-03-14T11:40:32.869Z,17.79
2023-03-14T11:43:08.341Z,17.67
2023-03-14T11:45:51.176Z,17.74
2023-03-14T11:49:06.352Z,17.89
2023-03-14T11:51:52.174Z,17.72
2023-03-14T11:55:04.005Z,17.77
2023-03-14T11:57:32.039Z,17.66
2023-03-14T12:00:14.200Z,17.51
2023-03-14T12:03:15.535Z,17.80
2023-03-14T12:06:16.882Z,17.57
2023-03-14T12:09:01.865Z,17.79
2023-03-14T12:11:46.227Z,17.85
2023-03-14T12:14:42.050Z,18.10
2023-03-14T12:17:20.746Z,18.22
2023-03-14T12:19:48.505Z,18.17
2023-03-14T12:22:42.564Z,18.29
2023-03-14T12:25:26.875Z,18.23
2023-03-14T12:28:09.331Z,17.78
2023-03-14T12:30:56.749Z,17.64
2023-03-14T12:33:31.820Z,17.67
2023-03-14T12:36:40.413Z,17.76
2023-03-14T12:39:26.319Z,17.78
2023-03-14T12:42:08.192Z,17.64
2023-03-14T12:44:46.695Z,17.72
2023-03-14T12:47:20.070Z,17.64
2023-03-14T12:49:56.363Z,17.57
2023-03-14T12:52:49.529Z,17.46
2023-03-14T12:55:40.033Z,17.66
2023-03-14T12:58:30.870Z,17.86
2023-03-14T13:01:05.815Z,17.53
2023-03-14T13:03:56.832Z,17.94
2023-03-14T13:07:03.692Z,17.92
2023-03-14T13:09:36.699Z,17.97
2023-03-14T13:12:28.896Z,17.83
2023-03-14T13:15:15.111Z,17.90
2023-03-14T13:17:47.919Z,17.76
2023-03-14T13:20:25.636Z,17.94
2023-03-14T13:22:56.071Z,17.79
2023-03-14T13:25:23.716Z,17.88
2023-03-14T13:28:04.356Z,17.75
2023-03-14T13:31:07.393Z,17.79
2023-03-14T13:33:35.556Z,17.72
2023-03-14T13:36:06.637Z,17.80
2023-03-14T13:38:37.438Z,17.70
2023-03-14T13:41:13.726Z,17.29
2023-03-14T13:43:42.678Z,17.70
2023-03-14T13:46:22.666Z,17.61
2023-03-14T13:49:13.303Z,17.44
2023-03-14T13:51:50.741Z,17.39
2023-03-14T13:54:23.594Z,17.53
2023-03-14T13:57:34.459Z,17.48
2023-03-14T14:00:23.465Z,17.15
2023-03-14T14:02:50.922Z,17.19
2023-03-14T14:05:29.053Z,17.36
2023-03-14T14:07:57.194Z,17.48
2023-03-14T14:10:26.810Z,17.57
2023-03-14T14:13:05.697Z,17.48
2023-03-14T14:15:43.874Z,17.39
2023-03-14T14:18:22.254Z,17.47
2023-03-14T14:20:49.545Z,16.97
2023-03-14T14:23:20.591Z,17.37
2023-03-14T14:26:14.114Z,17.52
2023-03-14T14:28:44.631Z,17.28
2023-03-14T14:31:33.075Z,17.05
2023-03-14T14:34:18.427Z,17.12
2023-03-14T14:36:55.133Z,17.22
2023-03-14T14:39:36.866Z,17.38
2023-03-14T14:42:14.439Z,17.40
2023-03-14T14:44:43.395Z,17.34
2023-03-14T14:47:19.349Z,17.45
2023-03-14T14:49:47.759Z,17.42
2023-03-14T14:52:37.864Z,17.43
2023-03-14T14:55:12.817Z,17.33
2023-03-14T14:57:54.100Z,16.84
2023-03-14T15:00:32.747Z,17.42
2023-03-14T15:03:06.098Z,17.20
2023-03-14T15:05:37.276Z,17.32
2023-03-14T15:08:12.174Z,16.32
2023-03-14T15:10:51.645Z,17.08
2023-03-14T15:13:28.152Z,17.13
2023-03-14T15:15:56.952Z,17.07
2023-03-14T15:18:35.711Z,17.15
2023-03-14T15:21:05.497Z,17.08
2023-03-14T15:23:42.556Z,17.32
2023-03-14T15:26:23.935Z,17.24
2023-03-14T15:28:53.154Z,17.35
2023-03-14T15:31:23.698Z,17.37
2023-03-14T15:33:51.278Z,17.08
2023-03-14T15:36:55.450Z,17.29
2023-03-14T15:39:24.946Z,17.22
2023-03-14T15:41:51.490Z,17.25
2023-03-14T15:44:18.221Z,17.02
2023-03-14T15:46:52.266Z,16.83
2023-03-14T15:49:18.869Z,17.14
2023-03-14T15:51:48.669Z,16.94
2023-03-14T15:54:15.301Z,16.78
2023-03-14T15:56:42.042Z,16.98
2023-03-14T15:59:12.022Z,16.91
2023-03-14T16:01:49.650Z,16.84
2023-03-14T16:04:16.869Z,16.80
2023-03-14T16:06:51.070Z,16.67
2023-03-14T16:09:20.044Z,16.82
2023-03-14T16:11:59.399Z,16.86
2023-03-14T16:14:26.286Z,16.83
2023-03-14T16:16:54.330Z,17.05
2023-03-14T16:19:20.924Z,16.92
2023-03-14T16:22:00.287Z,16.92
2023-03-14T16:24:35.882Z,16.83
2023-03-14T16:27:02.974Z,16.68
2023-03-14T16:29:33.054Z,16.97
2023-03-14T16:31:59.713Z,16.78
2023-03-14T16:34:31.271Z,16.72
2023-03-14T16:37:06.635Z,16.66
2023-03-14T16:39:55.886Z,16.65
2023-03-14T16:42:29.907Z,16.57
2023-03-14T16:45:02.566Z,16.69
2023-03-14T16:47:31.175Z,16.70
2023-03-14T16:50:05.586Z,16.65
2023-03-14T16:52:32.394Z,16.69
2023-03-14T16:55:14.363Z,16.41
2023-03-14T16:57:43.434Z,16.67
2023-03-14T17:03:21.492Z,16.55
2023-03-14T17:05:50.459Z,16.06
2023-03-14T17:08:30.888Z,16.59
2023-03-14T17:10:59.817Z,16.68
2023-03-14T17:13:36.649Z,16.46
2023-03-14T17:16:05.703Z,16.38
2023-03-14T17:18:35.235Z,16.60
2023-03-14T17:21:02.152Z,16.53
2023-03-14T17:23:33.652Z,16.48
2023-03-14T17:26:00.575Z,16.36
2023-03-14T17:28:29.354Z,16.33
2023-03-14T17:31:32.399Z,15.91
2023-03-14T17:33:59.650Z,16.38
2023-03-14T17:36:30.425Z,16.28
2023-03-14T17:39:00.028Z,16.43
2023-03-14T17:41:31.732Z,16.48
2023-03-14T17:44:04.064Z,16.43
2023-03-14T17:46:33.621Z,15.97
2023-03-14T17:49:06.120Z,15.79
2023-03-14T17:51:32.945Z,16.12
2023-03-14T17:54:26.209Z,16.30
2023-03-14T17:57:05.804Z,16.37
2023-03-14T17:59:39.297Z,16.38
2023-03-14T18:02:10.061Z,16.07
2023-03-14T18:04:36.946Z,16.37
2023-03-14T18:07:04.841Z,16.31
2023-03-14T18:09:33.654Z,16.37
2023-03-14T18:12:08.069Z,16.00
2023-03-14T18:14:47.086Z,16.26
2023-03-14T18:17:15.350Z,16.13
2023-03-14T18:19:48.721Z,16.23
2023-03-14T18:22:16.315Z,16.08
2023-03-14T18:24:43.239Z,16.21
2023-03-14T18:27:16.280Z,16.26
2023-03-14T18:29:48.705Z,16.08
2023-03-14T18:32:18.614Z,15.92
2023-03-14T18:34:45.356Z,16.13
2023-03-14T18:37:12.911Z,16.22
2023-03-14T18:39:42.918Z,15.96
2023-03-14T18:42:12.341Z,15.95
2023-03-14T18:44:42.250Z,15.42
2023-03-14T18:47:10.207Z,16.11
2023-03-14T18:49:37.004Z,15.94
2023-03-14T18:52:11.338Z,15.99
2023-03-14T18:54:41.279Z,15.78
2023-03-14T18:57:08.453Z,15.81
2023-03-14T18:59:35.065Z,15.72
2023-03-14T19:02:01.890Z,15.69
2023-03-14T19:04:32.033Z,15.68
2023-03-14T19:06:59.711Z,15.77
2023-03-14T19:09:32.923Z,15.70
2023-03-14T19:12:03.688Z,15.98
2023-03-14T19:14:36.167Z,15.78
2023-03-14T19:17:02.920Z,15.86
2023-03-14T19:19:29.611Z,15.82
2023-03-14T19:21:59.978Z,15.69
2023-03-14T19:24:26.708Z,15.27
2023-03-14T19:26:59.515Z,15.64
2023-03-14T19:29:26.400Z,15.35
2023-03-14T19:31:54.226Z,15.33
2023-03-14T19:34:28.297Z,15.30
2023-03-14T19:37:11.950Z,15.33
2023-03-14T19:39:42.839Z,15.37
2023-03-14T19:42:10.960Z,15.24
2023-03-14T19:44:38.431Z,15.17
2023-03-14T19:47:09.707Z,15.03
2023-03-14T19:49:51.281Z,15.03
2023-03-14T19:52:21.033Z,15.03
2023-03-14T19:54:53.962Z,14.90
2023-03-14T19:57:27.631Z,14.84
2023-03-14T19:59:55.057Z,14.50
2023-03-14T20:02:22.768Z,14.62
2023-03-14T20:04:58.097Z,14.82
2023-03-14T20:07:30.829Z,14.75
2023-03-14T20:09:59.446Z,14.80
2023-03-14T20:12:49.252Z,14.83
2023-03-14T20:15:20.696Z,14.44
2023-03-14T20:17:49.220Z,14.73
2023-03-14T20:20:16.451Z,14.65
2023-03-14T20:22:48.606Z,13.80
2023-03-14T20:25:25.330Z,14.04
2023-03-14T20:27:53.871Z,14.07
2023-03-14T20:30:27.406Z,13.86
2023-03-14T20:32:55.385Z,12.82
2023-03-14T20:35:28.592Z,13.83
2023-03-14T20:37:58.417Z,14.13
2023-03-14T20:40:28.799Z,14.05
2023-03-14T20:42:59.985Z,14.04
2023-03-14T20:45:29.659Z,13.68
2023-03-14T20:47:58.148Z,14.11
2023-03-14T20:50:50.033Z,12.98
2023-03-14T20:53:18.108Z,12.97
2023-03-14T20:55:44.878Z,14.05
2023-03-14T20:58:15.650Z,13.80
2023-03-14T21:00:51.021Z,13.67
2023-03-14T21:03:19.671Z,13.97
2023-03-14T21:06:04.383Z,13.97
2023-03-14T21:08:35.002Z,13.78
2023-03-14T21:11:03.691Z,13.86
2023-03-14T21:13:34.183Z,13.26
2023-03-14T21:16:03.379Z,13.79
2023-03-14T21:18:38.035Z,12.59
2023-03-14T21:21:10.952Z,13.74
2023-03-14T21:23:54.688Z,13.39
2023-03-14T21:26:41.280Z,13.66
2023-03-14T21:32:08.364Z,13.74
2023-03-14T21:34:34.946Z,13.61
2023-03-14T21:37:11.585Z,13.50
2023-03-14T21:39:59.230Z,13.30
2023-03-14T21:42:32.095Z,12.93
2023-03-14T21:44:58.645Z,13.29
2023-03-14T21:47:25.201Z,13.59
2023-03-14T21:49:58.307Z,13.67
2023-03-14T21:55:17.609Z,13.25
2023-03-14T21:57:51.507Z,13.36
2023-03-14T22:00:21.514Z,13.72
2023-03-14T22:03:12.867Z,13.46
2023-03-14T22:05:45.104Z,13.20
2023-03-14T22:10:56.791Z,13.49
2023-03-14T22:13:25.829Z,13.37
2023-03-14T22:15:55.192Z,13.43
2023-03-14T22:18:22.053Z,13.64
2023-03-14T22:20:51.313Z,13.51
2023-03-14T22:23:18.922Z,13.47
2023-03-14T22:25:49.467Z,13.07
2023-03-14T22:28:16.194Z,13.50
2023-03-14T22:31:22.688Z,13.35
2023-03-14T22:36:31.262Z,13.20
2023-03-14T22:38:58.441Z,13.45
2023-03-14T22:41:30.921Z,13.19
2023-03-14T22:46:47.326Z,13.32
2023-03-14T22:49:17.649Z,13.34
2023-03-14T22:51:55.555Z,13.00
2023-03-14T22:54:22.386Z,13.31
2023-03-14T22:56:52.047Z,13.29
2023-03-14T22:59:21.718Z,13.34
2023-03-14T23:01:51.504Z,13.30
2023-03-14T23:04:18.107Z,13.40
2023-03-14T23:06:49.953Z,13.43
2023-03-14T23:09:22.446Z,13.39
2023-03-14T23:11:49.035Z,13.02
2023-03-14T23:14:15.625Z,13.34
2023-03-14T23:16:44.898Z,13.06
2023-03-14T23:19:14.844Z,13.21
2023-03-14T23:21:41.510Z,13.32
2023-03-14T23:24:08.524Z,13.42
2023-03-14T23:26:46.132Z,13.44
2023-03-14T23:29:15.954Z,13.46
2023-03-14T23:31:45.635Z,13.35
2023-03-14T23:34:23.101Z,13.32
2023-03-14T23:36:49.580Z,13.21
2023-03-14T23:39:22.011Z,13.22
2023-03-14T23:41:49.128Z,13.40
2023-03-14T23:44:15.669Z,13.53
2023-03-14T23:46:45.165Z,13.34
2023-03-14T23:49:15.089Z,13.30
2023-03-14T23:51:54.845Z,13.45
2023-03-14T23:54:21.533Z,13.51
2023-03-14T23:56:48.157Z,13.40
2023-03-14T23:59:20.879Z,13.20
